Time;durP1;ratioP1;P1;durP2;ratioP2;P2;SDS_P1;SDS_P2;PMS_P1;PMS_P2;Temp;Humidity;BMP_temperature;BMP_pressure;BME280_temperature;BME280_humidity;BME280_pressure;Samples;Min_cycle;Max_cycle;Signal;HPM_P1;HPM_P2
2021/01/10 00:01:37;;;;;;;3.21;2.91;;;;;;;17.94;44.49;101129.77;;;;-48
2021/01/10 00:04:37;;;;;;;3.23;2.93;;;;;;;17.93;44.50;101132.11;;;;-48
2021/01/10 00:07:37;;;;;;;3.28;2.98;;;;;;;17.90;44.49;101127.65;;;;-51
2021/01/10 00:10:37;;;;;;;3.00;2.73;;;;;;;17.89;44.48;101130.07;;;;-51
2021/01/10 00:13:37;;;;;;;3.21;2.91;;;;;;;17.87;44.43;101128.16;;;;-51
2021/01/10 00:16:37;;;;;;;3.00;2.80;;;;;;;17.85;44.45;101132.01;;;;-50
2021/01/10 00:19:37;;;;;;;3.07;2.80;;;;;;;17.84;44.45;101129.94;;;;-50
2021/01/10 00:22:37;;;;;;;3.10;2.80;;;;;;;17.82;44.42;101124.91;;;;-50
2021/01/10 00:25:37;;;;;;;2.89;2.69;;;;;;;17.81;44.59;101126.52;;;;-50
2021/01/10 00:28:37;;;;;;;3.18;2.90;;;;;;;17.80;44.50;101125.34;;;;-50
2021/01/10 00:31:37;;;;;;;3.13;2.83;;;;;;;17.79;44.55;101125.98;;;;-50
2021/01/10 00:34:37;;;;;;;3.22;2.92;;;;;;;17.76;44.54;101122.61;;;;-50
2021/01/10 00:37:37;;;;;;;3.09;2.81;;;;;;;17.75;44.49;101120.55;;;;-50
2021/01/10 00:40:37;;;;;;;3.15;2.85;;;;;;;17.73;44.57;101121.13;;;;-48
2021/01/10 00:43:37;;;;;;;3.10;2.80;;;;;;;17.72;44.46;101120.53;;;;-48
2021/01/10 00:46:37;;;;;;;2.88;2.67;;;;;;;17.70;44.44;101121.61;;;;-48
2021/01/10 00:49:37;;;;;;;2.82;2.62;;;;;;;17.68;44.54;101121.03;;;;-48
2021/01/10 00:52:37;;;;;;;3.10;2.80;;;;;;;17.66;44.53;101125.77;;;;-48
2021/01/10 00:55:37;;;;;;;3.15;2.85;;;;;;;17.66;44.48;101130.43;;;;-48
2021/01/10 00:58:37;;;;;;;2.81;2.61;;;;;;;17.64;44.52;101133.58;;;;-48
2021/01/10 01:01:37;;;;;;;2.81;2.61;;;;;;;17.62;44.61;101135.15;;;;-48
2021/01/10 01:04:37;;;;;;;2.79;2.59;;;;;;;17.62;44.63;101140.22;;;;-49
2021/01/10 01:07:37;;;;;;;2.81;2.61;;;;;;;17.61;44.61;101137.61;;;;-48
2021/01/10 01:10:37;;;;;;;2.87;2.67;;;;;;;17.58;44.60;101137.48;;;;-51
2021/01/10 01:13:37;;;;;;;2.78;2.58;;;;;;;17.57;44.50;101137.77;;;;-51
2021/01/10 01:16:37;;;;;;;3.05;2.76;;;;;;;17.56;44.57;101137.91;;;;-51
2021/01/10 01:19:37;;;;;;;2.73;2.53;;;;;;;17.55;44.67;101137.55;;;;-51
2021/01/10 01:22:37;;;;;;;2.78;2.58;;;;;;;17.54;44.67;101141.59;;;;-51
2021/01/10 01:25:37;;;;;;;2.75;2.55;;;;;;;17.52;44.62;101142.02;;;;-50
2021/01/10 01:28:37;;;;;;;2.77;2.55;;;;;;;17.51;44.63;101140.60;;;;-51
2021/01/10 01:31:37;;;;;;;2.78;2.58;;;;;;;17.49;44.66;101140.15;;;;-51
2021/01/10 01:34:37;;;;;;;2.79;2.59;;;;;;;17.48;44.65;101149.30;;;;-51
2021/01/10 01:37:37;;;;;;;2.92;2.67;;;;;;;17.46;44.72;101151.52;;;;-51
2021/01/10 01:40:37;;;;;;;2.83;2.60;;;;;;;17.45;44.58;101151.63;;;;-51
2021/01/10 01:43:37;;;;;;;2.80;2.60;;;;;;;17.44;44.74;101158.67;;;;-51
2021/01/10 01:46:37;;;;;;;2.73;2.53;;;;;;;17.43;44.65;101154.09;;;;-51
2021/01/10 01:49:37;;;;;;;2.71;2.51;;;;;;;17.41;44.63;101157.55;;;;-48
2021/01/10 01:52:37;;;;;;;2.50;2.30;;;;;;;17.41;44.62;101162.41;;;;-48
2021/01/10 01:55:37;;;;;;;2.87;2.61;;;;;;;17.39;44.58;101162.89;;;;-48
2021/01/10 01:58:37;;;;;;;2.76;2.56;;;;;;;17.37;44.68;101161.66;;;;-49
2021/01/10 02:01:37;;;;;;;2.70;2.50;;;;;;;17.37;44.61;101163.69;;;;-48
2021/01/10 02:04:37;;;;;;;2.75;2.55;;;;;;;17.35;44.62;101160.96;;;;-48
2021/01/10 02:07:37;;;;;;;2.87;2.67;;;;;;;17.34;44.72;101169.10;;;;-48
2021/01/10 02:10:37;;;;;;;2.78;2.58;;;;;;;17.32;44.68;101167.27;;;;-48
2021/01/10 02:13:37;;;;;;;2.60;2.40;;;;;;;17.32;44.63;101165.47;;;;-48
2021/01/10 02:16:37;;;;;;;2.64;2.44;;;;;;;17.30;44.63;101160.97;;;;-48
2021/01/10 02:19:37;;;;;;;2.83;2.63;;;;;;;17.29;44.61;101155.94;;;;-48
2021/01/10 02:22:37;;;;;;;2.76;2.56;;;;;;;17.28;44.59;101153.22;;;;-48
2021/01/10 02:25:37;;;;;;;2.60;2.40;;;;;;;17.27;44.69;101154.83;;;;-48
2021/01/10 02:28:37;;;;;;;2.51;2.31;;;;;;;17.26;44.66;101161.47;;;;-48
2021/01/10 02:31:37;;;;;;;2.79;2.59;;;;;;;17.26;44.67;101158.03;;;;-50
2021/01/10 02:34:37;;;;;;;2.67;2.47;;;;;;;17.24;44.58;101157.24;;;;-51
2021/01/10 02:37:37;;;;;;;2.53;2.33;;;;;;;17.24;44.59;101153.52;;;;-50
2021/01/10 02:40:36;;;;;;;2.56;2.36;;;;;;;17.22;44.71;101147.80;;;;-51
2021/01/10 02:43:37;;;;;;;2.50;2.30;;;;;;;17.21;44.65;101147.30;;;;-51
2021/01/10 02:46:37;;;;;;;2.51;2.31;;;;;;;17.20;44.65;101135.27;;;;-51
2021/01/10 02:49:37;;;;;;;2.36;2.16;;;;;;;17.19;44.72;101135.50;;;;-50
2021/01/10 02:52:37;;;;;;;2.55;2.35;;;;;;;17.18;44.68;101131.23;;;;-50
2021/01/10 02:55:37;;;;;;;2.43;2.23;;;;;;;17.17;44.68;101132.36;;;;-51
2021/01/10 02:58:38;;;;;;;2.61;2.41;;;;;;;17.16;44.72;101136.33;;;;-51
2021/01/10 03:01:37;;;;;;;2.43;2.23;;;;;;;17.14;44.65;101133.36;;;;-48
2021/01/10 03:04:37;;;;;;;2.40;2.20;;;;;;;17.14;44.93;101130.16;;;;-48
2021/01/10 03:07:37;;;;;;;2.42;2.22;;;;;;;17.14;44.72;101128.86;;;;-54
2021/01/10 03:10:37;;;;;;;2.53;2.33;;;;;;;17.12;44.78;101126.09;;;;-54
2021/01/10 03:13:37;;;;;;;2.62;2.42;;;;;;;17.11;44.77;101131.06;;;;-54
2021/01/10 03:16:37;;;;;;;2.52;2.32;;;;;;;17.11;44.83;101132.84;;;;-54
2021/01/10 03:19:36;;;;;;;2.43;2.23;;;;;;;17.09;44.72;101128.26;;;;-50
2021/01/10 03:22:37;;;;;;;2.42;2.22;;;;;;;17.08;44.75;101128.17;;;;-54
2021/01/10 03:25:37;;;;;;;2.44;2.24;;;;;;;17.08;44.66;101129.38;;;;-54
2021/01/10 03:28:37;;;;;;;3.17;2.28;;;;;;;17.05;44.68;101123.78;;;;-54
2021/01/10 03:31:37;;;;;;;2.51;2.31;;;;;;;17.04;44.67;101126.60;;;;-50
2021/01/10 03:34:37;;;;;;;2.42;2.22;;;;;;;17.04;44.69;101127.73;;;;-50
2021/01/10 03:37:37;;;;;;;2.39;2.19;;;;;;;17.03;44.69;101128.83;;;;-50
2021/01/10 03:40:37;;;;;;;2.65;2.45;;;;;;;17.02;44.78;101126.62;;;;-50
2021/01/10 03:43:37;;;;;;;2.51;2.31;;;;;;;17.01;44.75;101126.83;;;;-48
2021/01/10 03:46:37;;;;;;;2.26;2.11;;;;;;;17.01;44.62;101127.55;;;;-54
2021/01/10 03:49:37;;;;;;;2.37;2.17;;;;;;;16.99;44.79;101132.52;;;;-50
2021/01/10 03:52:37;;;;;;;2.47;2.27;;;;;;;16.99;44.78;101129.11;;;;-50
2021/01/10 03:55:37;;;;;;;2.28;2.09;;;;;;;16.97;44.66;101130.52;;;;-54
2021/01/10 03:58:37;;;;;;;2.99;2.19;;;;;;;16.95;44.72;101130.74;;;;-50
2021/01/10 04:01:37;;;;;;;2.40;2.20;;;;;;;16.95;44.67;101130.95;;;;-48
2021/01/10 04:04:37;;;;;;;2.20;2.00;;;;;;;16.93;44.74;101130.20;;;;-48
2021/01/10 04:07:36;;;;;;;2.36;2.16;;;;;;;16.93;44.75;101128.74;;;;-48
2021/01/10 04:10:37;;;;;;;2.30;2.10;;;;;;;16.93;44.74;101131.63;;;;-50
2021/01/10 04:13:37;;;;;;;2.19;2.00;;;;;;;16.92;44.71;101130.23;;;;-54
2021/01/10 04:16:36;;;;;;;2.30;2.10;;;;;;;16.91;44.70;101129.86;;;;-54
2021/01/10 04:19:37;;;;;;;2.39;2.19;;;;;;;16.89;44.69;101127.66;;;;-54
2021/01/10 04:22:37;;;;;;;2.28;2.08;;;;;;;16.89;44.80;101129.31;;;;-54
2021/01/10 04:25:37;;;;;;;2.41;2.21;;;;;;;16.87;44.66;101131.00;;;;-54
2021/01/10 04:28:37;;;;;;;2.45;2.25;;;;;;;16.86;44.78;101133.14;;;;-48
2021/01/10 04:31:37;;;;;;;2.33;2.13;;;;;;;16.86;44.72;101135.81;;;;-48
2021/01/10 04:34:37;;;;;;;2.38;2.18;;;;;;;16.86;44.62;101137.99;;;;-48
2021/01/10 04:37:37;;;;;;;2.38;2.18;;;;;;;16.84;44.79;101137.62;;;;-48
2021/01/10 04:40:36;;;;;;;2.28;2.11;;;;;;;16.84;44.68;101141.25;;;;-50
2021/01/10 04:43:37;;;;;;;2.21;2.01;;;;;;;16.83;44.65;101142.34;;;;-50
2021/01/10 04:46:37;;;;;;;2.30;2.10;;;;;;;16.82;44.75;101142.17;;;;-50
2021/01/10 04:49:37;;;;;;;2.30;2.10;;;;;;;16.81;44.70;101136.49;;;;-51
2021/01/10 04:52:37;;;;;;;2.31;2.11;;;;;;;16.81;44.66;101143.62;;;;-50
2021/01/10 04:55:37;;;;;;;2.31;2.11;;;;;;;16.80;44.70;101139.09;;;;-48
2021/01/10 04:58:37;;;;;;;2.08;1.93;;;;;;;16.79;44.83;101140.21;;;;-48
2021/01/10 05:01:37;;;;;;;2.71;2.10;;;;;;;16.78;44.72;101139.35;;;;-48
2021/01/10 05:04:37;;;;;;;2.31;2.11;;;;;;;16.77;44.76;101144.12;;;;-50
2021/01/10 05:07:37;;;;;;;2.29;2.09;;;;;;;16.76;44.67;101144.80;;;;-54
2021/01/10 05:10:37;;;;;;;2.40;2.20;;;;;;;16.76;44.71;101140.59;;;;-54
2021/01/10 05:13:36;;;;;;;2.17;1.99;;;;;;;16.75;44.65;101144.55;;;;-48
2021/01/10 05:16:38;;;;;;;2.23;2.03;;;;;;;16.74;44.70;101144.66;;;;-50
2021/01/10 05:19:37;;;;;;;2.31;2.11;;;;;;;16.73;44.80;101139.63;;;;-50
2021/01/10 05:22:36;;;;;;;2.28;2.08;;;;;;;16.72;44.65;101140.48;;;;-51
2021/01/10 05:25:37;;;;;;;2.17;1.99;;;;;;;16.72;44.69;101145.65;;;;-50
2021/01/10 05:28:36;;;;;;;2.31;2.11;;;;;;;16.71;44.83;101144.34;;;;-50
2021/01/10 05:31:39;;;;;;;2.29;2.09;;;;;;;16.70;44.70;101153.77;;;;-54
2021/01/10 05:34:37;;;;;;;1.99;1.89;;;;;;;16.70;44.86;101150.45;;;;-50
2021/01/10 05:37:38;;;;;;;2.22;2.02;;;;;;;16.68;44.70;101153.06;;;;-51
2021/01/10 05:40:38;;;;;;;2.34;2.14;;;;;;;16.68;44.71;101152.73;;;;-51
2021/01/10 05:43:37;;;;;;;2.21;2.01;;;;;;;16.66;44.67;101147.59;;;;-50
2021/01/10 05:46:37;;;;;;;2.05;1.91;;;;;;;16.65;44.64;101143.94;;;;-54
2021/01/10 05:49:37;;;;;;;2.29;2.09;;;;;;;16.64;44.63;101146.88;;;;-54
2021/01/10 05:52:36;;;;;;;2.05;1.93;;;;;;;16.64;44.87;101145.50;;;;-54
2021/01/10 05:55:37;;;;;;;2.24;2.04;;;;;;;16.63;44.86;101143.06;;;;-54
2021/01/10 05:58:38;;;;;;;2.19;2.00;;;;;;;16.62;44.71;101144.75;;;;-51
2021/01/10 06:01:36;;;;;;;2.21;2.01;;;;;;;16.62;44.81;101149.64;;;;-51
2021/01/10 06:04:37;;;;;;;1.95;1.85;;;;;;;16.60;44.78;101148.41;;;;-50
2021/01/10 06:07:37;;;;;;;2.30;2.10;;;;;;;16.60;44.75;101148.58;;;;-50
2021/01/10 06:10:37;;;;;;;2.20;2.05;;;;;;;16.60;44.76;101149.34;;;;-54
2021/01/10 06:13:37;;;;;;;2.05;1.95;;;;;;;16.60;44.76;101153.83;;;;-54
2021/01/10 06:16:37;;;;;;;1.90;1.80;;;;;;;16.61;44.66;101149.14;;;;-54
2021/01/10 06:19:37;;;;;;;6.69;3.12;;;;;;;16.54;41.80;101150.27;;;;-51
2021/01/10 06:22:37;;;;;;;4.03;3.67;;;;;;;16.17;39.57;101149.37;;;;-54
2021/01/10 06:25:37;;;;;;;3.99;3.69;;;;;;;15.91;38.66;101149.11;;;;-51
2021/01/10 06:28:37;;;;;;;4.17;3.77;;;;;;;15.70;38.02;101148.89;;;;-54
2021/01/10 06:31:37;;;;;;;3.87;3.50;;;;;;;15.52;37.57;101150.38;;;;-54
2021/01/10 06:34:37;;;;;;;3.83;3.53;;;;;;;15.38;37.08;101147.51;;;;-49
2021/01/10 06:37:37;;;;;;;3.62;3.32;;;;;;;15.43;38.77;101149.05;;;;-54
2021/01/10 06:40:36;;;;;;;5.33;3.11;;;;;;;15.60;39.12;101148.80;;;;-48
2021/01/10 06:43:37;;;;;;;4.13;2.89;;;;;;;15.74;39.63;101146.95;;;;-48
2021/01/10 06:46:37;;;;;;;4.61;2.93;;;;;;;15.85;40.60;101153.44;;;;-51
2021/01/10 06:49:36;;;;;;;3.23;2.67;;;;;;;15.94;41.05;101155.36;;;;-48
2021/01/10 06:52:37;;;;;;;2.57;2.37;;;;;;;16.02;41.46;101155.23;;;;-50
2021/01/10 06:55:36;;;;;;;2.72;2.41;;;;;;;16.11;41.65;101157.19;;;;-50
2021/01/10 06:58:36;;;;;;;2.45;2.25;;;;;;;16.19;41.81;101157.04;;;;-50
2021/01/10 07:01:37;;;;;;;2.68;2.39;;;;;;;16.27;41.78;101161.22;;;;-51
2021/01/10 07:04:36;;;;;;;2.41;2.21;;;;;;;16.34;41.93;101163.39;;;;-51
2021/01/10 07:07:37;;;;;;;2.50;2.30;;;;;;;16.41;42.02;101161.09;;;;-51
2021/01/10 07:10:37;;;;;;;2.41;2.20;;;;;;;16.49;42.18;101162.30;;;;-50
2021/01/10 07:13:36;;;;;;;2.32;2.12;;;;;;;16.55;42.31;101158.20;;;;-54
2021/01/10 07:16:37;;;;;;;3.23;2.07;;;;;;;16.61;42.42;101159.27;;;;-54
2021/01/10 07:19:36;;;;;;;3.47;2.08;;;;;;;16.67;42.52;101156.22;;;;-54
2021/01/10 07:22:38;;;;;;;2.26;2.00;;;;;;;16.73;42.65;101161.80;;;;-48
2021/01/10 07:25:37;;;;;;;2.50;1.96;;;;;;;16.78;42.75;101158.70;;;;-48
2021/01/10 07:28:37;;;;;;;2.35;2.10;;;;;;;16.83;42.83;101155.62;;;;-48
2021/01/10 07:31:37;;;;;;;2.21;2.01;;;;;;;16.87;42.96;101156.30;;;;-50
2021/01/10 07:34:37;;;;;;;2.09;1.92;;;;;;;16.92;43.02;101161.97;;;;-50
2021/01/10 07:37:36;;;;;;;2.27;2.07;;;;;;;16.95;43.12;101158.63;;;;-50
2021/01/10 07:40:37;;;;;;;2.30;2.10;;;;;;;16.98;43.19;101160.84;;;;-51
2021/01/10 07:43:36;;;;;;;2.23;2.03;;;;;;;17.01;43.19;101161.23;;;;-50
2021/01/10 07:46:37;;;;;;;3.34;2.07;;;;;;;17.04;43.25;101164.58;;;;-48
2021/01/10 07:50:37;;;;;;;2.33;2.13;;;;;;;17.06;43.21;101166.98;;;;-48
2021/01/10 07:53:36;;;;;;;2.37;2.01;;;;;;;17.08;43.28;101162.47;;;;-50
2021/01/10 07:56:37;;;;;;;3.13;1.83;;;;;;;17.08;43.23;101164.45;;;;-50
2021/01/10 07:59:36;;;;;;;2.10;1.90;;;;;;;17.10;43.28;101161.55;;;;-56
2021/01/10 08:02:36;;;;;;;2.08;1.83;;;;;;;17.11;43.27;101165.32;;;;-55
2021/01/10 08:05:37;;;;;;;2.20;2.00;;;;;;;17.12;43.28;101168.73;;;;-54
2021/01/10 08:08:36;;;;;;;2.97;1.93;;;;;;;17.12;43.25;101167.12;;;;-55
2021/01/10 08:11:37;;;;;;;2.21;2.01;;;;;;;17.12;43.23;101169.98;;;;-51
2021/01/10 08:14:37;;;;;;;2.07;1.93;;;;;;;17.12;43.22;101166.70;;;;-48
2021/01/10 08:17:37;;;;;;;1.99;1.87;;;;;;;17.12;43.27;101169.66;;;;-48
2021/01/10 08:20:37;;;;;;;2.19;2.01;;;;;;;17.12;43.28;101170.84;;;;-48
2021/01/10 08:23:37;;;;;;;1.90;1.80;;;;;;;17.12;43.25;101171.41;;;;-54
2021/01/10 08:26:37;;;;;;;2.11;1.93;;;;;;;17.12;43.32;101177.84;;;;-54
2021/01/10 08:29:37;;;;;;;2.25;2.00;;;;;;;17.11;43.36;101177.95;;;;-50
2021/01/10 08:32:36;;;;;;;2.11;1.91;;;;;;;17.11;43.37;101177.95;;;;-54
2021/01/10 08:35:37;;;;;;;2.13;1.93;;;;;;;17.10;43.37;101180.45;;;;-51
2021/01/10 08:38:37;;;;;;;1.79;1.69;;;;;;;17.10;43.46;101180.50;;;;-51
2021/01/10 08:41:36;;;;;;;1.92;1.79;;;;;;;17.10;43.45;101177.34;;;;-51
2021/01/10 08:44:37;;;;;;;2.00;1.90;;;;;;;17.09;43.42;101181.46;;;;-50
2021/01/10 08:47:36;;;;;;;2.17;1.97;;;;;;;17.10;43.41;101188.52;;;;-48
2021/01/10 08:50:37;;;;;;;1.90;1.80;;;;;;;17.09;43.42;101191.42;;;;-51
2021/01/10 08:53:37;;;;;;;1.95;1.81;;;;;;;17.08;43.53;101194.00;;;;-50
2021/01/10 08:56:36;;;;;;;2.48;1.92;;;;;;;17.09;43.59;101195.23;;;;-50
2021/01/10 08:59:37;;;;;;;1.95;1.85;;;;;;;17.09;43.60;101200.17;;;;-50
2021/01/10 09:02:37;;;;;;;1.99;1.86;;;;;;;17.08;43.50;101201.62;;;;-54
2021/01/10 09:05:36;;;;;;;1.95;1.85;;;;;;;17.08;43.61;101200.89;;;;-54
2021/01/10 09:08:37;;;;;;;2.15;1.95;;;;;;;17.09;43.62;101200.17;;;;-50
2021/01/10 09:11:36;;;;;;;2.05;1.85;;;;;;;17.09;43.61;101202.84;;;;-50
2021/01/10 09:14:36;;;;;;;1.85;1.73;;;;;;;17.09;43.58;101201.06;;;;-50
2021/01/10 09:17:37;;;;;;;2.01;1.90;;;;;;;17.09;43.61;101199.94;;;;-50
2021/01/10 09:20:36;;;;;;;1.95;1.85;;;;;;;17.10;43.63;101201.96;;;;-51
2021/01/10 09:23:36;;;;;;;1.89;1.79;;;;;;;17.10;43.65;101202.57;;;;-54
2021/01/10 09:26:37;;;;;;;2.07;1.92;;;;;;;17.11;43.68;101206.22;;;;-54
2021/01/10 09:29:36;;;;;;;1.93;1.83;;;;;;;17.11;43.67;101210.27;;;;-50
2021/01/10 09:32:37;;;;;;;1.93;1.83;;;;;;;17.11;43.67;101209.70;;;;-54
2021/01/10 09:35:36;;;;;;;1.97;1.85;;;;;;;17.12;43.63;101212.58;;;;-51
2021/01/10 09:38:36;;;;;;;1.90;1.80;;;;;;;17.13;43.72;101210.16;;;;-50
2021/01/10 09:41:38;;;;;;;1.90;1.80;;;;;;;17.12;43.63;101210.89;;;;-48
2021/01/10 09:44:36;;;;;;;2.17;1.87;;;;;;;17.14;43.68;101210.91;;;;-51
2021/01/10 09:47:37;;;;;;;1.85;1.73;;;;;;;17.14;43.71;101206.61;;;;-51
2021/01/10 09:50:37;;;;;;;1.90;1.80;;;;;;;17.13;43.67;101201.50;;;;-51
2021/01/10 09:53:36;;;;;;;1.95;1.77;;;;;;;17.14;43.68;101202.72;;;;-48
2021/01/10 09:56:37;;;;;;;1.80;1.70;;;;;;;17.14;43.73;101201.91;;;;-48
2021/01/10 09:59:37;;;;;;;1.96;1.79;;;;;;;17.14;43.71;101198.59;;;;-50
2021/01/10 10:02:37;;;;;;;1.81;1.71;;;;;;;17.15;43.56;101198.31;;;;-50
2021/01/10 10:05:37;;;;;;;1.93;1.81;;;;;;;17.15;43.73;101201.07;;;;-50
2021/01/10 10:08:36;;;;;;;2.21;1.81;;;;;;;17.14;43.86;101193.94;;;;-56
2021/01/10 10:11:37;;;;;;;3.90;2.40;;;;;;;17.16;42.94;101196.34;;;;-52
2021/01/10 10:14:37;;;;;;;5.41;2.39;;;;;;;17.17;43.65;101198.78;;;;-55
2021/01/10 10:17:37;;;;;;;3.21;2.43;;;;;;;17.22;43.68;101191.38;;;;-53
2021/01/10 10:20:37;;;;;;;3.34;2.23;;;;;;;17.26;44.19;101187.27;;;;-55
2021/01/10 10:23:36;;;;;;;2.50;2.12;;;;;;;17.32;44.37;101186.37;;;;-61
2021/01/10 10:26:36;;;;;;;2.06;1.90;;;;;;;17.38;44.50;101185.90;;;;-48
2021/01/10 10:29:37;;;;;;;2.59;2.15;;;;;;;17.46;44.69;101182.78;;;;-46
2021/01/10 10:32:36;;;;;;;2.15;1.99;;;;;;;17.51;44.64;101171.88;;;;-53
2021/01/10 10:35:37;;;;;;;4.33;1.97;;;;;;;17.56;44.76;101167.34;;;;-52
2021/01/10 10:38:36;;;;;;;6.00;1.97;;;;;;;17.63;44.43;101171.63;;;;-60
2021/01/10 10:41:36;;;;;;;3.40;2.09;;;;;;;17.67;44.26;101171.73;;;;-56
2021/01/10 10:44:36;;;;;;;2.88;2.00;;;;;;;17.72;44.17;101176.88;;;;-60
2021/01/10 10:47:36;;;;;;;2.17;1.94;;;;;;;17.76;44.10;101173.03;;;;-54
2021/01/10 10:50:37;;;;;;;3.58;1.95;;;;;;;17.78;43.95;101171.43;;;;-54
2021/01/10 10:53:37;;;;;;;2.83;1.93;;;;;;;17.80;43.97;101168.16;;;;-54
2021/01/10 10:56:37;;;;;;;2.17;1.97;;;;;;;17.82;44.02;101166.02;;;;-53
2021/01/10 10:59:36;;;;;;;6.72;2.13;;;;;;;17.87;44.04;101165.78;;;;-51
2021/01/10 11:02:37;;;;;;;4.50;1.88;;;;;;;17.91;44.40;101161.63;;;;-59
2021/01/10 11:05:37;;;;;;;3.19;1.95;;;;;;;17.94;44.49;101153.62;;;;-59
2021/01/10 11:08:37;;;;;;;2.74;1.89;;;;;;;17.98;44.50;101152.09;;;;-53
2021/01/10 11:11:36;;;;;;;2.27;1.83;;;;;;;18.02;44.50;101143.66;;;;-51
2021/01/10 11:14:37;;;;;;;2.13;1.91;;;;;;;18.03;44.45;101143.79;;;;-58
2021/01/10 11:17:37;;;;;;;2.13;1.79;;;;;;;18.09;44.52;101145.11;;;;-49
2021/01/10 11:20:36;;;;;;;2.09;1.89;;;;;;;18.11;44.57;101139.65;;;;-55
2021/01/10 11:23:36;;;;;;;2.34;1.90;;;;;;;18.15;44.52;101136.90;;;;-50
2021/01/10 11:26:37;;;;;;;1.72;1.62;;;;;;;18.17;44.54;101134.03;;;;-51
2021/01/10 11:29:36;;;;;;;2.33;1.85;;;;;;;18.20;44.56;101134.27;;;;-60
2021/01/10 11:32:37;;;;;;;3.76;1.89;;;;;;;18.23;44.61;101135.87;;;;-61
2021/01/10 11:35:36;;;;;;;2.30;1.88;;;;;;;18.27;44.48;101134.74;;;;-57
2021/01/10 11:38:36;;;;;;;2.12;1.69;;;;;;;18.29;44.58;101131.22;;;;-52
2021/01/10 11:41:37;;;;;;;2.43;1.79;;;;;;;18.32;44.35;101128.14;;;;-49
2021/01/10 11:44:36;;;;;;;1.73;1.63;;;;;;;18.36;44.63;101124.66;;;;-53
2021/01/10 11:47:36;;;;;;;2.59;1.80;;;;;;;18.38;44.55;101122.72;;;;-57
2021/01/10 11:50:37;;;;;;;1.89;1.71;;;;;;;18.41;44.45;101122.77;;;;-58
2021/01/10 11:53:36;;;;;;;1.89;1.67;;;;;;;18.45;44.46;101120.29;;;;-50
2021/01/10 11:56:36;;;;;;;1.96;1.65;;;;;;;18.48;44.34;101113.84;;;;-58
2021/01/10 11:59:36;;;;;;;2.69;1.67;;;;;;;18.51;44.33;101108.05;;;;-54
2021/01/10 12:02:37;;;;;;;4.30;1.99;;;;;;;18.55;44.33;101104.40;;;;-48
2021/01/10 12:05:37;;;;;;;1.83;1.73;;;;;;;18.55;44.23;101101.27;;;;-54
2021/01/10 12:08:36;;;;;;;2.05;1.67;;;;;;;18.54;44.17;101102.45;;;;-56
2021/01/10 12:11:37;;;;;;;2.01;1.81;;;;;;;18.54;44.11;101102.45;;;;-55
2021/01/10 12:14:37;;;;;;;1.67;1.57;;;;;;;18.55;44.10;101100.30;;;;-55
2021/01/10 12:17:36;;;;;;;2.10;1.70;;;;;;;18.56;44.11;101098.99;;;;-55
2021/01/10 12:20:36;;;;;;;1.88;1.73;;;;;;;18.57;44.04;101096.97;;;;-55
2021/01/10 12:23:37;;;;;;;1.80;1.70;;;;;;;18.57;43.96;101092.70;;;;-49
2021/01/10 12:26:36;;;;;;;1.69;1.59;;;;;;;18.57;43.98;101092.22;;;;-49
2021/01/10 12:29:37;;;;;;;1.78;1.68;;;;;;;18.58;43.94;101089.87;;;;-49
2021/01/10 12:32:38;;;;;;;1.73;1.63;;;;;;;18.59;43.95;101090.36;;;;-49
2021/01/10 12:35:37;;;;;;;1.93;1.71;;;;;;;18.59;43.91;101085.60;;;;-52
2021/01/10 12:38:37;;;;;;;1.81;1.70;;;;;;;18.60;43.89;101088.04;;;;-55
2021/01/10 12:41:36;;;;;;;2.36;1.79;;;;;;;18.62;43.92;101088.57;;;;-54
2021/01/10 12:44:36;;;;;;;1.83;1.63;;;;;;;18.62;43.91;101087.19;;;;-55
2021/01/10 12:47:37;;;;;;;1.80;1.63;;;;;;;18.64;43.88;101084.95;;;;-55
2021/01/10 12:50:36;;;;;;;1.60;1.50;;;;;;;18.66;43.88;101082.16;;;;-51
2021/01/10 12:53:37;;;;;;;1.74;1.64;;;;;;;18.67;43.83;101078.27;;;;-55
2021/01/10 12:56:36;;;;;;;1.77;1.67;;;;;;;18.68;43.87;101076.19;;;;-56
2021/01/10 12:59:37;;;;;;;1.87;1.77;;;;;;;18.70;43.85;101074.61;;;;-55
2021/01/10 13:02:37;;;;;;;3.56;1.60;;;;;;;18.76;43.92;101077.94;;;;-53
2021/01/10 13:05:36;;;;;;;2.73;1.81;;;;;;;18.82;44.30;101079.95;;;;-56
2021/01/10 13:08:36;;;;;;;2.08;1.68;;;;;;;18.84;44.30;101074.80;;;;-52
2021/01/10 13:11:36;;;;;;;2.06;1.69;;;;;;;18.91;44.16;101076.00;;;;-53
2021/01/10 13:14:36;;;;;;;1.97;1.66;;;;;;;18.87;43.56;101078.04;;;;-52
2021/01/10 13:17:37;;;;;;;4.15;1.90;;;;;;;18.88;43.75;101076.01;;;;-53
2021/01/10 13:20:36;;;;;;;1.85;1.73;;;;;;;18.88;43.79;101079.17;;;;-52
2021/01/10 13:23:36;;;;;;;2.90;1.68;;;;;;;18.88;43.78;101074.39;;;;-58
2021/01/10 13:26:37;;;;;;;2.98;1.74;;;;;;;18.89;43.85;101070.52;;;;-58
2021/01/10 13:29:36;;;;;;;2.31;1.60;;;;;;;18.89;43.83;101065.33;;;;-58
2021/01/10 13:32:36;;;;;;;1.69;1.59;;;;;;;18.90;43.79;101062.00;;;;-49
2021/01/10 13:35:36;;;;;;;1.93;1.59;;;;;;;18.91;43.83;101058.30;;;;-49
2021/01/10 13:38:36;;;;;;;1.72;1.61;;;;;;;18.92;43.76;101054.41;;;;-49
2021/01/10 13:41:36;;;;;;;1.74;1.61;;;;;;;18.93;43.78;101053.95;;;;-49
2021/01/10 13:44:37;;;;;;;2.01;1.76;;;;;;;18.93;43.75;101054.44;;;;-49
2021/01/10 13:47:36;;;;;;;1.80;1.70;;;;;;;18.94;43.76;101054.84;;;;-49
2021/01/10 13:50:36;;;;;;;1.63;1.53;;;;;;;18.95;43.77;101056.58;;;;-49
2021/01/10 13:53:37;;;;;;;1.74;1.64;;;;;;;18.96;43.76;101055.77;;;;-49
2021/01/10 13:56:36;;;;;;;1.57;1.47;;;;;;;18.96;43.79;101054.72;;;;-49
2021/01/10 13:59:36;;;;;;;1.71;1.60;;;;;;;18.98;43.76;101059.06;;;;-53
2021/01/10 14:02:36;;;;;;;1.59;1.49;;;;;;;18.98;43.73;101055.56;;;;-53
2021/01/10 14:05:36;;;;;;;1.70;1.60;;;;;;;19.00;43.64;101054.06;;;;-53
2021/01/10 14:08:36;;;;;;;1.58;1.48;;;;;;;19.00;43.75;101051.30;;;;-53
2021/01/10 14:11:38;;;;;;;1.60;1.50;;;;;;;19.01;43.72;101053.28;;;;-58
2021/01/10 14:14:36;;;;;;;1.69;1.59;;;;;;;19.03;43.66;101054.34;;;;-59
2021/01/10 14:17:36;;;;;;;2.57;1.73;;;;;;;19.03;43.67;101059.17;;;;-57
2021/01/10 14:20:36;;;;;;;1.57;1.47;;;;;;;19.04;43.69;101058.28;;;;-58
2021/01/10 14:23:37;;;;;;;3.23;1.51;;;;;;;19.09;43.73;101061.03;;;;-55
2021/01/10 14:26:36;;;;;;;1.65;1.55;;;;;;;19.11;43.99;101063.50;;;;-53
2021/01/10 14:29:36;;;;;;;1.71;1.61;;;;;;;19.13;43.96;101060.30;;;;-55
2021/01/10 14:32:36;;;;;;;1.94;1.70;;;;;;;19.16;44.05;101060.60;;;;-51
2021/01/10 14:35:36;;;;;;;1.80;1.57;;;;;;;19.17;44.07;101059.06;;;;-51
2021/01/10 14:38:36;;;;;;;1.59;1.49;;;;;;;19.20;44.04;101063.44;;;;-51
2021/01/10 14:41:36;;;;;;;1.82;1.68;;;;;;;19.22;44.08;101061.03;;;;-51
2021/01/10 14:44:36;;;;;;;2.06;1.60;;;;;;;19.25;44.12;101065.87;;;;-53
2021/01/10 14:47:37;;;;;;;1.68;1.58;;;;;;;19.26;44.18;101064.48;;;;-55
2021/01/10 14:50:36;;;;;;;1.63;1.53;;;;;;;19.27;44.13;101068.09;;;;-49
2021/01/10 14:53:36;;;;;;;1.77;1.49;;;;;;;19.29;44.08;101075.28;;;;-52
2021/01/10 14:56:36;;;;;;;1.75;1.65;;;;;;;19.30;44.17;101073.28;;;;-49
2021/01/10 14:59:36;;;;;;;3.13;1.71;;;;;;;19.32;44.22;101073.05;;;;-60
2021/01/10 15:02:36;;;;;;;1.60;1.50;;;;;;;19.33;44.21;101077.79;;;;-52
2021/01/10 15:05:36;;;;;;;1.61;1.51;;;;;;;19.33;44.24;101088.59;;;;-58
2021/01/10 15:08:36;;;;;;;1.75;1.65;;;;;;;19.34;44.17;101091.39;;;;-55
2021/01/10 15:11:37;;;;;;;1.49;1.39;;;;;;;19.35;44.13;101090.75;;;;-55
2021/01/10 15:14:36;;;;;;;2.04;1.50;;;;;;;19.36;44.25;101092.73;;;;-48
2021/01/10 15:17:36;;;;;;;1.68;1.58;;;;;;;19.37;44.19;101092.81;;;;-53
2021/01/10 15:20:36;;;;;;;1.69;1.59;;;;;;;19.36;44.16;101090.70;;;;-52
2021/01/10 15:23:36;;;;;;;2.45;1.55;;;;;;;19.39;44.17;101096.91;;;;-53
2021/01/10 15:26:36;;;;;;;1.69;1.59;;;;;;;19.41;44.29;101099.14;;;;-53
2021/01/10 15:29:36;;;;;;;1.71;1.61;;;;;;;19.42;44.19;101100.44;;;;-52
2021/01/10 15:32:36;;;;;;;1.68;1.58;;;;;;;19.42;44.15;101099.39;;;;-50
2021/01/10 15:35:40;;;;;;;1.70;1.60;;;;;;;19.43;44.23;101105.36;;;;-49
2021/01/10 15:38:37;;;;;;;2.39;1.54;;;;;;;19.44;44.19;101104.55;;;;-47
2021/01/10 15:41:36;;;;;;;1.60;1.50;;;;;;;19.45;44.13;101109.21;;;;-46
2021/01/10 15:44:36;;;;;;;1.70;1.60;;;;;;;19.46;44.14;101109.38;;;;-48
2021/01/10 15:47:36;;;;;;;1.82;1.70;;;;;;;19.47;44.23;101108.92;;;;-50
2021/01/10 15:50:36;;;;;;;2.25;1.45;;;;;;;19.48;44.22;101109.81;;;;-46
2021/01/10 15:53:36;;;;;;;2.25;1.56;;;;;;;19.48;44.09;101111.84;;;;-47
2021/01/10 15:56:36;;;;;;;1.66;1.56;;;;;;;19.49;44.15;101109.36;;;;-54
2021/01/10 15:59:36;;;;;;;1.60;1.50;;;;;;;19.49;44.17;101113.02;;;;-55
2021/01/10 16:02:36;;;;;;;1.60;1.50;;;;;;;19.49;44.13;101105.78;;;;-59
2021/01/10 16:05:36;;;;;;;1.80;1.70;;;;;;;19.51;44.20;101108.91;;;;-54
2021/01/10 16:08:36;;;;;;;1.71;1.61;;;;;;;19.51;43.97;101110.02;;;;-53
2021/01/10 16:12:07;;;;;;;2.33;1.71;;;;;;;19.52;44.00;101112.41;;;;-52
2021/01/10 16:14:36;;;;;;;3.93;1.93;;;;;;;19.51;43.76;101112.31;;;;-50
2021/01/10 16:17:39;;;;;;;2.26;2.06;;;;;;;19.52;43.32;101120.29;;;;-53
2021/01/10 16:20:36;;;;;;;3.43;2.00;;;;;;;19.51;43.30;101117.98;;;;-53
2021/01/10 16:23:36;;;;;;;2.83;2.02;;;;;;;19.51;43.47;101113.38;;;;-51
2021/01/10 16:26:36;;;;;;;2.21;2.01;;;;;;;19.52;43.43;101117.84;;;;-52
2021/01/10 16:29:36;;;;;;;2.22;2.02;;;;;;;19.53;43.55;101116.17;;;;-55
2021/01/10 16:32:36;;;;;;;2.77;2.30;;;;;;;19.52;43.35;101121.27;;;;-48
2021/01/10 16:35:36;;;;;;;2.30;2.10;;;;;;;19.52;43.07;101126.62;;;;-58
2021/01/10 16:38:36;;;;;;;2.64;2.18;;;;;;;19.54;43.36;101129.75;;;;-51
2021/01/10 16:41:36;;;;;;;2.37;2.17;;;;;;;19.52;43.21;101131.59;;;;-51
2021/01/10 16:44:36;;;;;;;2.93;2.07;;;;;;;19.52;43.24;101129.39;;;;-51